Airfield :







YOU CAN JOIN US ON...

 
LOGIN :

Register | Disclaimer

   EN    FR    IT 

 









Legend :    VFR   Marginal VFR   IFR   Intensive IFR   Very Intensive IFR
Visi :
Ceiling :
>= 8 km
>= 3000ft
5 to 8 km
1000 to 3000 ft
1500m to 5 km
500 to 1000 ft
800 to 1500m
200 to 500 ft
< 800m
< 200 ft
Symbols :   Thunderstorms  Fog  Heavy snow  Heavy precipitations  Wind > 20 kt







- Airport Elevation : 550 ft
- IATA code : YOY


CYOY - C J.H.L.(Joe) Lecomte) Heliport

CURRENT METAR :
  • 191700Z 00000KT 4SM -SN SCT015 OVC029 M04/M05 A3001 RMK SC3SC5 DA-1684FT SLP176

EXPIRED METARs :
  • 191641Z 00000KT 2 1/2SM -SN OVC015 M04/M05 A3002 RMK SC8 DA-1747FT SLP179
  • 191618Z 00000KT 1SM -SN VV010 M05/M06 A3002 RMK SN8 DA-1813FT SLP182
  • 191600Z 35003KT 3SM -SN OVC015 M05/M06 A3003 RMK SC8 DA-1878FT /S02/ SLP184
  • 191544Z CCA 34002KT 1SM -SN OVC014 M05/M07 A3003 RMK SN2SC6 DA-1919FT SUN DIMLY VISBL SLP185
  • 191520Z 34002KT 2 1/2SM -SN OVC014 M06/M07 A3004 RMK SC8 DA-1982FT SLP190
  • 191500Z 36002KT 2 1/2SM -SN OVC015 M06/M07 A3005 RMK SC8 DA-2034FT SLP191
  • 191440Z 35002KT 3SM -SN BKN015 OVC026 M06/M07 A3005 RMK SC6SC2 DA-2074FT SLP192

TAF AMD TAF CYOY
Valid from the 19 at 15:00 until the 20 at 01:00 UTC


191554Z 1915/2001 VRB03KT 3/4SM -SHSN BR BKN006 OVC020
TEMPO 1915/1917 3SM -SHSN OVC025
FM191700 25005KT 6SM -SHSN BKN025 OVC040
TEMPO 1917/2001 3SM -SHSN BKN020 OVC040 RMK NXT FCST BY 191800Z
CZUL FIR / North America



MET'MAP, your aeronautical weather chart ! - Copyright ORBIFLY December 2007 - Disclaimer

ORBIFLY MET'MAP TEAM :

Programming & Development : Alexandra Zaïnal
Concept & Development : Baudouin d'Aumeries
Co-Development & Prog : Marc-Olivier Méhu
Technical & hardware support : Manuel Goepfert

Contact : metmap@orbifly.com




SOURCES & CREDITS :

   NOAA